Zwettl Stadt, Austria
Current Conditions -  °F | °C
As of 3:50 AM on Sunday 21 Dec 2014 (Local Time) from LOWL Reporting Station
Rain Showers Rain Showers  
Wind Chill: 28°   Ceiling: 6000
Heat Index: 37°   Visibility: 6mi
Dew Point: 34°   Wind: 17mph
Humidity: 87%   Direction: 270°W
Pressure: 30.27"   Gusts: NA
Location:  48.62°N, 15.17°E
Report Text: LOWL 210150Z AUTO 27015KT 9999 -SHRA FEW011 BKN060 03/01 Q1025 RESHRA
Loading
Personal Weather Stations






























Interactive Weather Map New forecast layout! Learn more

10-Day Weather Forecast

Advertisements
Track Severe Weather on mobile